< < Back
Terminal Aerodrome Forecast


Current Version              Previous Versions:   1  2  3  4  5  6  7  8  9  

Terminal Aerodrome Forecast

119
FTUS42 KCHS 301135
TAFCHS
TAF
KCHS 301135Z 3012/3112 27008KT P6SM VCSH BKN050 WS020/25035KT
     FM301300 32013G22KT P6SM SKC
     FM302100 32006KT P6SM SKC=

Latest METAR

896
SAUS80 KWBC 301400 CCA
MTRCHS
METAR KCHS 301356Z 31013G22KT 10SM FEW250 12/04 A3009 RMK AO2 SLP190
T01220044


USA.gov is the U.S. government's official web portal to all federal, state and local government web resources and services.